createdAt,value
2022-10-19T00:01:44.937Z,1.42
2022-10-19T00:04:11.834Z,1.52
2022-10-19T00:06:38.821Z,1.30
2022-10-19T00:09:16.929Z,1.52
2022-10-19T00:11:45.752Z,1.42
2022-10-19T00:14:15.290Z,1.25
2022-10-19T00:16:42.861Z,1.50
2022-10-19T00:19:12.533Z,1.52
2022-10-19T00:21:39.743Z,1.70
2022-10-19T00:24:07.398Z,1.73
2022-10-19T00:26:34.378Z,2.40
2022-10-19T00:29:01.328Z,2.13
2022-10-19T00:31:28.254Z,2.63
2022-10-19T00:33:56.194Z,2.10
2022-10-19T00:36:28.726Z,3.65
2022-10-19T00:38:56.029Z,3.15
2022-10-19T00:41:23.853Z,3.25
2022-10-19T00:44:01.724Z,2.78
2022-10-19T00:46:36.447Z,2.38
2022-10-19T00:49:25.398Z,1.75
2022-10-19T00:52:08.731Z,1.67
2022-10-19T00:54:37.241Z,1.60
2022-10-19T00:57:04.327Z,1.70
2022-10-19T00:59:33.833Z,1.50
2022-10-19T01:02:04.300Z,1.52
2022-10-19T01:04:31.236Z,1.20
2022-10-19T01:06:58.095Z,1.77
2022-10-19T01:09:24.969Z,1.30
2022-10-19T01:12:00.932Z,2.05
2022-10-19T01:14:30.887Z,1.55
2022-10-19T01:17:28.647Z,1.33
2022-10-19T01:20:19.592Z,1.70
2022-10-19T01:23:16.963Z,1.70
2022-10-19T01:26:00.102Z,1.48
2022-10-19T01:28:51.904Z,1.20
2022-10-19T01:31:56.342Z,1.38
2022-10-19T01:34:43.380Z,1.50
2022-10-19T01:37:16.948Z,1.40
2022-10-19T01:39:59.075Z,1.35
2022-10-19T01:42:34.128Z,1.48
2022-10-19T01:45:11.038Z,1.63
2022-10-19T01:47:49.950Z,1.50
2022-10-19T01:50:19.858Z,1.98
2022-10-19T01:52:46.727Z,2.25
2022-10-19T01:55:13.650Z,1.85
2022-10-19T01:57:43.825Z,2.35
2022-10-19T02:00:11.711Z,2.35
2022-10-19T02:02:40.602Z,3.10
2022-10-19T02:05:07.934Z,3.35
2022-10-19T02:07:34.952Z,2.92
2022-10-19T02:10:01.842Z,3.45
2022-10-19T02:12:28.998Z,3.00
2022-10-19T02:14:58.270Z,3.10
2022-10-19T02:17:31.002Z,2.77
2022-10-19T02:19:58.161Z,3.25
2022-10-19T02:22:25.090Z,3.80
2022-10-19T02:24:51.971Z,3.42
2022-10-19T02:27:19.198Z,3.95
2022-10-19T02:29:46.108Z,3.55
2022-10-19T02:32:12.978Z,3.90
2022-10-19T02:34:39.840Z,3.33
2022-10-19T02:37:06.723Z,3.22
2022-10-19T02:39:33.614Z,2.33
2022-10-19T02:42:05.297Z,2.53
2022-10-19T02:44:55.058Z,1.90
2022-10-19T02:47:40.069Z,1.60
2022-10-19T02:50:07.750Z,1.65
2022-10-19T02:52:36.957Z,1.40
2022-10-19T02:55:04.617Z,2.27
2022-10-19T02:57:32.787Z,1.55
2022-10-19T03:00:00.084Z,1.48
2022-10-19T03:02:26.975Z,1.88
2022-10-19T03:04:53.844Z,2.15
2022-10-19T03:07:21.091Z,1.88
2022-10-19T03:09:48.129Z,2.80
2022-10-19T03:12:15.190Z,1.95
2022-10-19T03:14:42.323Z,2.20
2022-10-19T03:17:09.289Z,2.47
2022-10-19T03:19:36.238Z,2.83
2022-10-19T03:22:03.245Z,2.50
2022-10-19T03:24:30.687Z,3.72
2022-10-19T03:26:57.680Z,4.40
2022-10-19T03:29:24.570Z,7.60
2022-10-19T03:31:51.534Z,8.90
2022-10-19T03:34:18.379Z,8.98
2022-10-19T03:36:45.253Z,9.63
2022-10-19T03:39:13.639Z,8.70
2022-10-19T03:41:40.697Z,7.63
2022-10-19T03:44:08.076Z,8.00
2022-10-19T03:46:35.589Z,6.15
2022-10-19T03:49:02.821Z,6.50
2022-10-19T03:51:30.088Z,4.75
2022-10-19T03:54:00.593Z,5.07
2022-10-19T03:56:28.931Z,4.18
2022-10-19T03:58:56.334Z,3.97
2022-10-19T04:01:25.083Z,3.53
2022-10-19T04:03:55.678Z,3.60
2022-10-19T04:06:25.788Z,3.60
2022-10-19T04:08:52.659Z,4.15
2022-10-19T04:11:22.162Z,3.95
2022-10-19T04:13:50.493Z,4.05
2022-10-19T04:16:17.650Z,4.32
2022-10-19T04:18:44.641Z,3.55
2022-10-19T04:21:35.403Z,3.45
2022-10-19T04:24:13.205Z,3.25
2022-10-19T04:26:42.131Z,2.85
2022-10-19T04:29:09.063Z,2.55
2022-10-19T04:31:36.057Z,3.05
2022-10-19T04:34:02.982Z,3.67
2022-10-19T04:36:29.854Z,2.92
2022-10-19T04:38:56.766Z,3.28
2022-10-19T04:41:23.828Z,3.22
2022-10-19T04:43:55.673Z,3.30
2022-10-19T04:46:22.531Z,3.35
2022-10-19T04:48:49.598Z,3.00
2022-10-19T04:51:16.689Z,2.67
2022-10-19T04:53:44.293Z,2.88
2022-10-19T04:56:19.104Z,2.70
2022-10-19T04:58:46.402Z,2.50
2022-10-19T05:01:15.470Z,2.55
2022-10-19T05:03:42.504Z,3.40
2022-10-19T05:06:09.599Z,2.97
2022-10-19T05:08:36.745Z,2.60
2022-10-19T05:11:08.685Z,2.90
2022-10-19T05:13:35.635Z,1.92
2022-10-19T05:16:03.975Z,2.55
2022-10-19T05:18:30.910Z,2.47
2022-10-19T05:21:05.553Z,2.85
2022-10-19T05:26:01.573Z,2.20
2022-10-19T05:28:28.704Z,3.20
2022-10-19T05:30:55.921Z,3.30
2022-10-19T05:33:22.806Z,3.65
2022-10-19T05:35:49.638Z,3.95
2022-10-19T05:38:16.489Z,4.75
2022-10-19T05:40:50.374Z,4.53
2022-10-19T05:43:20.685Z,3.67
2022-10-19T05:45:47.550Z,3.33
2022-10-19T05:48:14.393Z,3.33
2022-10-19T05:50:41.339Z,3.60
2022-10-19T05:53:08.226Z,3.20
2022-10-19T05:55:36.186Z,2.53
2022-10-19T05:58:03.166Z,2.78
2022-10-19T06:00:30.256Z,3.10
2022-10-19T06:02:59.127Z,4.28
2022-10-19T06:05:26.217Z,2.92
2022-10-19T06:07:53.182Z,3.20
2022-10-19T06:10:21.318Z,2.85
2022-10-19T06:12:48.261Z,2.97
2022-10-19T06:15:15.146Z,4.07
2022-10-19T06:17:42.030Z,3.30
2022-10-19T06:20:09.310Z,3.00
2022-10-19T06:22:36.177Z,4.18
2022-10-19T06:25:03.041Z,3.05
2022-10-19T06:27:32.235Z,3.15
2022-10-19T06:29:59.311Z,2.65
2022-10-19T06:32:26.220Z,2.65
2022-10-19T06:34:56.487Z,2.83
2022-10-19T06:37:23.721Z,2.47
2022-10-19T06:39:50.670Z,2.60
2022-10-19T06:42:17.592Z,2.63
2022-10-19T06:44:44.540Z,3.47
2022-10-19T06:47:11.519Z,2.50
2022-10-19T06:49:38.518Z,2.80
2022-10-19T06:52:08.469Z,3.80
2022-10-19T06:54:35.346Z,2.70
2022-10-19T06:57:02.212Z,2.67
2022-10-19T06:59:29.125Z,2.40
2022-10-19T07:01:56.018Z,2.13
2022-10-19T07:04:23.046Z,2.55
2022-10-19T07:06:49.996Z,2.60
2022-10-19T07:09:17.066Z,2.13
2022-10-19T07:11:46.144Z,2.53
2022-10-19T07:14:13.271Z,1.92
2022-10-19T07:16:40.171Z,1.60
2022-10-19T07:19:07.122Z,1.85
2022-10-19T07:21:35.947Z,2.00
2022-10-19T07:24:02.857Z,2.20
2022-10-19T07:26:30.687Z,2.40
2022-10-19T07:28:57.773Z,2.28
2022-10-19T07:31:24.991Z,2.10
2022-10-19T07:33:56.058Z,2.30
2022-10-19T07:36:23.701Z,2.35
2022-10-19T07:38:50.653Z,2.80
2022-10-19T07:41:19.115Z,2.03
2022-10-19T07:43:46.532Z,2.15
2022-10-19T07:46:15.494Z,1.48
2022-10-19T07:48:42.872Z,2.10
2022-10-19T07:51:10.505Z,2.28
2022-10-19T07:53:37.627Z,2.17
2022-10-19T07:56:08.904Z,2.05
2022-10-19T07:58:36.579Z,1.83
2022-10-19T08:01:04.689Z,2.00
2022-10-19T08:04:31.240Z,2.40
2022-10-19T08:06:19.533Z,2.17
2022-10-19T08:08:46.888Z,2.45
2022-10-19T08:11:20.652Z,2.05
2022-10-19T08:13:47.675Z,3.78
2022-10-19T08:16:34.488Z,2.72
2022-10-19T08:19:03.110Z,2.58
2022-10-19T08:21:30.977Z,2.45
2022-10-19T08:23:57.925Z,2.60
2022-10-19T08:26:25.041Z,2.30
2022-10-19T08:28:51.957Z,2.75
2022-10-19T08:31:20.794Z,2.40
2022-10-19T08:33:49.537Z,3.00
2022-10-19T08:36:16.443Z,2.30
2022-10-19T08:38:45.113Z,2.83
2022-10-19T08:41:29.506Z,3.15
2022-10-19T08:44:34.319Z,2.92
2022-10-19T08:47:07.732Z,3.20
2022-10-19T08:49:34.739Z,2.70
2022-10-19T08:52:04.997Z,2.35
2022-10-19T08:54:50.635Z,2.60
2022-10-19T08:57:51.619Z,2.67
2022-10-19T09:03:56.024Z,3.23
2022-10-19T09:06:26.272Z,2.85
2022-10-19T09:08:54.245Z,2.50
2022-10-19T09:11:28.155Z,3.53
2022-10-19T09:14:06.254Z,3.05
2022-10-19T09:16:34.972Z,2.80
2022-10-19T09:19:02.725Z,2.80
2022-10-19T09:21:46.119Z,2.78
2022-10-19T09:24:40.338Z,2.90
2022-10-19T09:27:10.134Z,2.70
2022-10-19T09:32:05.851Z,3.25
2022-10-19T09:34:37.714Z,2.53
2022-10-19T09:37:04.746Z,2.60
2022-10-19T09:39:31.807Z,2.78
2022-10-19T09:42:07.982Z,2.88
2022-10-19T09:44:34.958Z,2.80
2022-10-19T09:47:20.843Z,2.60
2022-10-19T09:49:48.830Z,2.85
2022-10-19T09:52:32.305Z,2.80
2022-10-19T09:55:03.247Z,3.60
2022-10-19T09:57:30.421Z,3.65
2022-10-19T09:59:57.362Z,3.47
2022-10-19T10:02:32.156Z,2.80
2022-10-19T10:05:14.299Z,2.50
2022-10-19T10:07:41.195Z,3.58
2022-10-19T10:10:28.156Z,3.47
2022-10-19T10:12:58.845Z,3.72
2022-10-19T10:15:27.251Z,2.95
2022-10-19T10:17:54.116Z,3.13
2022-10-19T10:20:27.974Z,2.92
2022-10-19T10:22:57.574Z,3.60
2022-10-19T10:25:26.591Z,3.30
2022-10-19T10:28:20.078Z,2.72
2022-10-19T10:30:47.806Z,2.83
2022-10-19T10:33:33.271Z,3.58
2022-10-19T10:36:10.032Z,3.00
2022-10-19T10:38:47.747Z,2.70
2022-10-19T10:41:20.346Z,3.28
2022-10-19T10:44:20.129Z,3.05
2022-10-19T10:46:55.513Z,3.65
2022-10-19T10:49:36.018Z,3.53
2022-10-19T10:52:15.834Z,2.97
2022-10-19T10:55:06.561Z,3.03
2022-10-19T10:57:38.985Z,3.00
2022-10-19T11:00:22.034Z,2.67
2022-10-19T11:03:01.046Z,3.40
2022-10-19T11:05:36.634Z,3.00
2022-10-19T11:08:12.332Z,3.17
2022-10-19T11:11:07.336Z,3.00
2022-10-19T11:13:47.314Z,3.00
2022-10-19T11:16:16.387Z,2.53
2022-10-19T11:19:11.103Z,3.50
2022-10-19T11:21:51.363Z,2.90
2022-10-19T11:24:33.092Z,2.70
2022-10-19T11:27:21.625Z,2.63
2022-10-19T11:30:14.324Z,2.67
2022-10-19T11:32:59.491Z,3.20
2022-10-19T11:35:41.096Z,3.28
2022-10-19T11:38:52.913Z,2.65
2022-10-19T11:41:30.930Z,2.85
2022-10-19T11:44:25.819Z,2.60
2022-10-19T11:47:08.138Z,2.88
2022-10-19T11:49:47.020Z,3.00
2022-10-19T11:52:29.815Z,2.33
2022-10-19T11:55:15.334Z,2.60
2022-10-19T11:57:48.485Z,2.63
2022-10-19T12:00:38.147Z,3.25
2022-10-19T12:03:31.471Z,2.85
2022-10-19T12:06:09.364Z,2.25
2022-10-19T12:08:51.167Z,2.47
2022-10-19T12:11:42.312Z,3.92
2022-10-19T12:14:15.423Z,3.58
2022-10-19T12:16:44.773Z,3.22
2022-10-19T12:19:21.266Z,2.75
2022-10-19T12:21:48.346Z,3.13
2022-10-19T12:24:17.881Z,3.40
2022-10-19T12:26:44.941Z,2.65
2022-10-19T12:29:18.025Z,3.20
2022-10-19T12:31:45.113Z,2.90
2022-10-19T12:34:24.637Z,2.80
2022-10-19T12:37:00.563Z,2.83
2022-10-19T12:39:52.448Z,3.13
2022-10-19T12:42:51.465Z,2.70
2022-10-19T12:45:36.461Z,2.70
2022-10-19T12:48:18.942Z,2.70
2022-10-19T12:50:48.925Z,3.67
2022-10-19T12:53:31.696Z,2.90
2022-10-19T12:56:18.950Z,2.38
2022-10-19T12:58:48.167Z,2.65
2022-10-19T13:01:44.463Z,2.60
2022-10-19T13:04:14.211Z,2.28
2022-10-19T13:09:09.286Z,2.70
2022-10-19T13:11:38.402Z,2.20
2022-10-19T13:14:06.489Z,2.67
2022-10-19T13:16:36.125Z,2.67
2022-10-19T13:21:57.823Z,2.50
2022-10-19T13:24:24.701Z,2.58
2022-10-19T13:27:03.941Z,2.58
2022-10-19T13:29:39.964Z,2.95
2022-10-19T13:32:37.085Z,3.10
2022-10-19T13:35:23.265Z,3.30
2022-10-19T13:38:18.441Z,2.60
2022-10-19T13:40:48.249Z,3.03
2022-10-19T13:43:40.346Z,2.65
2022-10-19T13:46:47.515Z,2.40
2022-10-19T13:49:35.693Z,2.40
2022-10-19T13:52:28.275Z,3.60
2022-10-19T13:55:13.771Z,3.40
2022-10-19T13:57:51.506Z,3.45
2022-10-19T14:00:31.348Z,3.30
2022-10-19T14:03:19.977Z,2.70
2022-10-19T14:05:52.730Z,3.88
2022-10-19T14:09:01.142Z,2.95
2022-10-19T14:11:31.241Z,3.83
2022-10-19T14:14:18.962Z,3.30
2022-10-19T14:16:54.504Z,3.60
2022-10-19T14:19:26.955Z,3.75
2022-10-19T14:21:55.746Z,3.13
2022-10-19T14:24:33.722Z,2.97
2022-10-19T14:27:04.953Z,3.35
2022-10-19T14:29:35.935Z,4.45
2022-10-19T14:32:02.871Z,3.67
2022-10-19T14:34:29.766Z,4.05
2022-10-19T14:36:56.664Z,3.15
2022-10-19T14:39:33.355Z,3.63
2022-10-19T14:42:07.268Z,3.60
2022-10-19T14:44:43.829Z,3.70
2022-10-19T14:47:21.728Z,3.95
2022-10-19T14:49:48.743Z,4.20
2022-10-19T14:52:20.427Z,3.72
2022-10-19T14:54:48.552Z,4.88
2022-10-19T14:57:19.928Z,4.65
2022-10-19T14:59:49.167Z,5.28
2022-10-19T15:02:31.294Z,3.90
2022-10-19T15:05:00.757Z,3.90
2022-10-19T15:07:41.047Z,3.75
2022-10-19T15:10:22.910Z,4.25
2022-10-19T15:12:50.999Z,4.63
2022-10-19T15:15:27.394Z,5.07
2022-10-19T15:18:07.046Z,4.18
2022-10-19T15:20:44.158Z,5.53
2022-10-19T15:23:53.078Z,5.07
2022-10-19T15:26:29.487Z,5.10
2022-10-19T15:29:18.539Z,4.13
2022-10-19T15:31:45.527Z,4.97
2022-10-19T15:34:28.908Z,3.95
2022-10-19T15:37:00.467Z,4.45
2022-10-19T15:39:39.809Z,3.80
2022-10-19T15:42:32.061Z,3.83
2022-10-19T15:45:00.209Z,4.65
2022-10-19T15:47:27.462Z,4.47
2022-10-19T15:49:55.876Z,4.53
2022-10-19T15:52:27.522Z,5.60
2022-10-19T15:54:55.961Z,4.95
2022-10-19T15:57:57.918Z,4.25
2022-10-19T16:00:24.767Z,4.82
2022-10-19T16:02:51.574Z,4.55
2022-10-19T16:05:18.699Z,5.20
2022-10-19T16:07:45.603Z,4.90
2022-10-19T16:10:18.343Z,5.47
2022-10-19T16:12:45.254Z,4.55
2022-10-19T16:15:13.153Z,4.80
2022-10-19T16:17:40.207Z,4.05
2022-10-19T16:20:07.378Z,4.32
2022-10-19T16:22:34.262Z,4.75
2022-10-19T16:25:01.160Z,3.80
2022-10-19T16:27:28.075Z,4.15
2022-10-19T16:29:54.938Z,4.78
2022-10-19T16:32:21.819Z,4.70
2022-10-19T16:34:48.655Z,5.00
2022-10-19T16:37:15.548Z,4.72
2022-10-19T16:39:42.404Z,5.80
2022-10-19T16:42:09.330Z,4.10
2022-10-19T16:44:36.155Z,4.57
2022-10-19T16:47:03.117Z,4.75
2022-10-19T16:49:30.080Z,5.60
2022-10-19T16:51:57.758Z,5.53
2022-10-19T16:54:26.571Z,4.93
2022-10-19T16:56:53.451Z,5.63
2022-10-19T16:59:20.328Z,4.95
2022-10-19T17:01:47.521Z,4.25
2022-10-19T17:04:15.127Z,5.18
2022-10-19T17:06:42.229Z,4.85
2022-10-19T17:11:55.937Z,4.90
2022-10-19T17:14:22.776Z,5.63
2022-10-19T17:16:49.729Z,4.43
2022-10-19T17:19:16.757Z,4.97
2022-10-19T17:21:43.686Z,4.15
2022-10-19T17:24:20.367Z,4.18
2022-10-19T17:26:48.478Z,5.65
2022-10-19T17:29:15.445Z,4.45
2022-10-19T17:31:42.446Z,4.78
2022-10-19T17:34:09.569Z,4.15
2022-10-19T17:39:29.925Z,4.93
2022-10-19T17:42:01.713Z,4.72
2022-10-19T17:44:30.709Z,5.20
2022-10-19T17:46:57.920Z,4.93
2022-10-19T17:49:24.894Z,5.90
2022-10-19T17:51:52.898Z,5.15
2022-10-19T17:54:19.880Z,5.07
2022-10-19T17:56:46.781Z,5.30
2022-10-19T17:59:13.801Z,4.90
2022-10-19T18:01:40.811Z,5.93
2022-10-19T18:04:07.799Z,5.68
2022-10-19T18:06:35.876Z,6.03
2022-10-19T18:09:04.222Z,5.38
2022-10-19T18:11:39.746Z,5.82
2022-10-19T18:14:08.001Z,5.35
2022-10-19T18:16:43.704Z,5.43
2022-10-19T18:19:10.615Z,6.82
2022-10-19T18:21:39.429Z,4.95
2022-10-19T18:24:09.115Z,6.03
2022-10-19T18:26:38.667Z,5.80
2022-10-19T18:29:13.511Z,5.65
2022-10-19T18:31:40.593Z,5.55
2022-10-19T18:34:08.223Z,5.68
2022-10-19T18:36:35.161Z,5.10
2022-10-19T18:39:02.890Z,5.65
2022-10-19T18:41:29.923Z,6.30
2022-10-19T18:44:03.173Z,7.55
2022-10-19T18:46:30.573Z,7.18
2022-10-19T18:48:57.415Z,7.28
2022-10-19T18:51:24.401Z,6.50
2022-10-19T18:53:51.545Z,5.65
2022-10-19T18:56:20.255Z,7.30
2022-10-19T18:58:47.376Z,5.55
2022-10-19T19:01:15.319Z,6.82
2022-10-19T19:03:44.259Z,6.85
2022-10-19T19:06:36.281Z,7.30
2022-10-19T19:09:05.997Z,6.53
2022-10-19T19:11:36.782Z,7.63
2022-10-19T19:14:17.821Z,6.20
2022-10-19T19:16:45.082Z,6.65
2022-10-19T19:19:13.249Z,7.35
2022-10-19T19:21:41.859Z,6.25
2022-10-19T19:24:08.678Z,6.18
2022-10-19T19:26:39.514Z,7.30
2022-10-19T19:29:06.573Z,6.95
2022-10-19T19:31:33.599Z,7.05
2022-10-19T19:34:01.167Z,9.27
2022-10-19T19:36:28.215Z,7.63
2022-10-19T19:38:56.275Z,7.85
2022-10-19T19:41:24.288Z,7.45
2022-10-19T19:43:51.189Z,6.80
2022-10-19T19:46:19.116Z,6.40
2022-10-19T19:48:47.298Z,7.53
2022-10-19T19:51:17.026Z,7.68
2022-10-19T19:53:43.976Z,8.32
2022-10-19T19:56:11.629Z,8.05
2022-10-19T19:58:38.680Z,7.15
2022-10-19T20:01:12.339Z,7.45
2022-10-19T20:03:40.570Z,7.28
2022-10-19T20:06:07.422Z,6.60
2022-10-19T20:08:36.294Z,7.55
2022-10-19T20:11:08.228Z,8.03
2022-10-19T20:13:35.254Z,8.10
2022-10-19T20:16:13.280Z,8.20
2022-10-19T20:18:41.092Z,8.05
2022-10-19T20:21:07.962Z,7.35
2022-10-19T20:23:34.846Z,7.78
2022-10-19T20:26:01.902Z,7.93
2022-10-19T20:28:28.965Z,8.25
2022-10-19T20:31:14.263Z,8.20
2022-10-19T20:33:41.870Z,8.23
2022-10-19T20:36:16.857Z,7.18
2022-10-19T20:38:54.143Z,8.77
2022-10-19T20:41:21.722Z,9.50
2022-10-19T20:43:48.698Z,9.20
2022-10-19T20:46:17.876Z,7.50
2022-10-19T20:48:45.150Z,7.53
2022-10-19T20:51:17.331Z,8.63
2022-10-19T20:53:46.431Z,7.75
2022-10-19T20:56:14.512Z,8.95
2022-10-19T20:58:43.497Z,8.27
2022-10-19T21:01:17.921Z,11.13
2022-10-19T21:03:54.886Z,9.27
2022-10-19T21:06:22.832Z,7.30
2022-10-19T21:08:49.925Z,8.20
2022-10-19T21:11:18.983Z,8.10
2022-10-19T21:13:46.116Z,8.77
2022-10-19T21:16:17.910Z,8.35
2022-10-19T21:18:45.621Z,8.13
2022-10-19T21:21:15.559Z,7.90
2022-10-19T21:23:43.291Z,9.00
2022-10-19T21:26:10.151Z,8.02
2022-10-19T21:28:37.563Z,9.05
2022-10-19T21:31:05.585Z,8.63
2022-10-19T21:33:32.487Z,8.23
2022-10-19T21:36:03.409Z,9.98
2022-10-19T21:38:30.550Z,9.43
2022-10-19T21:41:01.391Z,9.90
2022-10-19T21:43:28.515Z,8.93
2022-10-19T21:45:55.356Z,8.80
2022-10-19T21:48:22.432Z,7.30
2022-10-19T21:50:49.555Z,8.80
2022-10-19T21:53:20.443Z,8.60
2022-10-19T21:55:47.370Z,8.70
2022-10-19T21:58:14.271Z,8.05
2022-10-19T22:00:41.245Z,8.45
2022-10-19T22:03:08.418Z,7.15
2022-10-19T22:05:35.263Z,7.63
2022-10-19T22:08:02.145Z,8.32
2022-10-19T22:10:29.247Z,7.80
2022-10-19T22:12:56.236Z,8.30
2022-10-19T22:15:23.236Z,8.48
2022-10-19T22:17:50.202Z,9.85
2022-10-19T22:20:17.140Z,8.00
2022-10-19T22:22:43.958Z,7.72
2022-10-19T22:25:10.795Z,8.75
2022-10-19T22:27:37.591Z,9.27
2022-10-19T22:30:04.770Z,9.68
2022-10-19T22:32:31.603Z,8.73
2022-10-19T22:34:58.494Z,8.73
2022-10-19T22:37:25.356Z,8.27
2022-10-19T22:39:52.215Z,10.05
2022-10-19T22:42:19.137Z,9.65
2022-10-19T22:44:46.160Z,7.97
2022-10-19T22:47:13.001Z,9.40
2022-10-19T22:49:39.878Z,8.93
2022-10-19T22:52:06.778Z,8.73
2022-10-19T22:54:33.643Z,9.70
2022-10-19T22:57:00.523Z,9.13
2022-10-19T22:59:27.486Z,10.07
2022-10-19T23:01:54.454Z,8.75
2022-10-19T23:04:21.414Z,10.63
2022-10-19T23:06:48.471Z,9.90
2022-10-19T23:09:15.315Z,9.07
2022-10-19T23:11:42.146Z,9.52
2022-10-19T23:14:08.988Z,10.07
2022-10-19T23:16:35.807Z,7.38
2022-10-19T23:19:02.685Z,8.98
2022-10-19T23:21:29.561Z,9.07
2022-10-19T23:23:56.440Z,9.38
2022-10-19T23:26:24.818Z,10.80
2022-10-19T23:28:51.874Z,9.68
2022-10-19T23:31:25.201Z,10.20
2022-10-19T23:33:52.918Z,9.35
2022-10-19T23:36:23.999Z,9.13
2022-10-19T23:38:51.623Z,11.38
2022-10-19T23:41:19.037Z,10.73
2022-10-19T23:43:45.959Z,9.30
2022-10-19T23:46:12.916Z,10.35
2022-10-19T23:48:40.002Z,11.40
2022-10-19T23:51:08.689Z,9.77
2022-10-19T23:53:39.989Z,11.85
2022-10-19T23:56:19.386Z,11.75
2022-10-19T23:58:46.446Z,10.68
